createdAt,value
2023-01-20T00:00:29.946Z,14.70
2023-01-20T00:01:29.853Z,13.50
2023-01-20T00:02:29.884Z,13.30
2023-01-20T00:03:29.849Z,15.30
2023-01-20T00:04:29.943Z,15.10
2023-01-20T00:05:29.817Z,14.20
2023-01-20T00:06:29.788Z,13.90
2023-01-20T00:07:29.766Z,13.60
2023-01-20T00:08:29.803Z,14.10
2023-01-20T00:09:29.737Z,14.50
2023-01-20T00:10:29.737Z,13.40
2023-01-20T00:11:29.726Z,13.00
2023-01-20T00:12:29.748Z,13.10
2023-01-20T00:13:29.732Z,13.80
2023-01-20T00:14:29.729Z,13.30
2023-01-20T00:15:29.670Z,13.10
2023-01-20T00:16:29.668Z,13.90
2023-01-20T00:17:29.662Z,13.90
2023-01-20T00:18:29.637Z,14.00
2023-01-20T00:19:29.668Z,14.90
2023-01-20T00:20:29.627Z,14.90
2023-01-20T00:21:29.598Z,14.70
2023-01-20T00:22:29.620Z,15.50
2023-01-20T00:23:29.587Z,14.90
2023-01-20T00:24:29.575Z,15.70
2023-01-20T00:25:29.586Z,15.60
2023-01-20T00:26:29.555Z,14.60
2023-01-20T00:27:29.566Z,14.50
2023-01-20T00:28:29.528Z,13.70
2023-01-20T00:29:29.564Z,15.00
2023-01-20T00:30:29.581Z,14.40
2023-01-20T00:31:29.587Z,13.60
2023-01-20T00:32:29.499Z,14.30
2023-01-20T00:33:29.489Z,13.50
2023-01-20T00:34:29.476Z,14.60
2023-01-20T00:35:29.453Z,13.90
2023-01-20T00:36:29.451Z,14.20
2023-01-20T00:37:29.451Z,14.50
2023-01-20T00:38:29.436Z,14.80
2023-01-20T00:39:29.455Z,14.60
2023-01-20T00:40:29.396Z,14.10
2023-01-20T00:41:29.376Z,13.20
2023-01-20T00:42:29.419Z,14.10
2023-01-20T00:43:29.348Z,13.70
2023-01-20T00:44:29.357Z,13.40
2023-01-20T00:45:29.335Z,13.20
2023-01-20T00:46:29.413Z,12.70
2023-01-20T00:47:29.392Z,12.10
2023-01-20T00:48:29.317Z,12.90
2023-01-20T00:49:29.293Z,12.00
2023-01-20T00:50:29.267Z,12.30
2023-01-20T00:51:29.263Z,11.80
2023-01-20T00:52:29.267Z,11.70
2023-01-20T00:53:29.285Z,11.50
2023-01-20T00:54:29.281Z,12.00
2023-01-20T00:55:29.219Z,11.40
2023-01-20T00:56:29.214Z,12.80
2023-01-20T00:57:29.198Z,12.00
2023-01-20T00:58:29.181Z,12.80
2023-01-20T00:59:29.232Z,12.10
2023-01-20T01:00:29.220Z,13.50
2023-01-20T01:01:29.177Z,11.90
2023-01-20T01:02:29.204Z,12.50
2023-01-20T01:03:29.129Z,12.80
2023-01-20T01:04:29.112Z,13.40
2023-01-20T01:05:29.090Z,13.10
2023-01-20T01:06:29.131Z,13.20
2023-01-20T01:07:29.083Z,12.20
2023-01-20T01:08:29.184Z,12.70
2023-01-20T01:09:29.050Z,12.30
2023-01-20T01:10:29.041Z,11.90
2023-01-20T01:11:29.040Z,12.40
2023-01-20T01:12:29.056Z,12.50
2023-01-20T01:13:29.013Z,12.10
2023-01-20T01:14:29.001Z,11.90
2023-01-20T01:15:28.976Z,11.60
2023-01-20T01:16:29.031Z,11.10
2023-01-20T01:17:28.980Z,11.40
2023-01-20T01:18:28.970Z,11.40
2023-01-20T01:19:28.963Z,12.50
2023-01-20T01:20:28.936Z,11.10
2023-01-20T01:21:28.931Z,11.00
2023-01-20T01:22:28.937Z,11.30
2023-01-20T01:23:29.043Z,12.00
2023-01-20T01:24:28.895Z,11.40
2023-01-20T01:25:28.889Z,11.80
2023-01-20T01:26:28.861Z,11.40
2023-01-20T01:27:28.864Z,11.60
2023-01-20T01:28:28.829Z,11.30
2023-01-20T01:29:28.874Z,10.90
2023-01-20T01:30:28.814Z,11.60
2023-01-20T01:31:28.841Z,11.10
2023-01-20T01:32:28.797Z,11.80
2023-01-20T01:33:28.819Z,11.80
2023-01-20T01:34:28.758Z,11.10
2023-01-20T01:35:28.846Z,10.90
2023-01-20T01:36:28.759Z,11.00
2023-01-20T01:37:28.747Z,11.80
2023-01-20T01:38:28.747Z,11.40
2023-01-20T01:39:28.726Z,11.30
2023-01-20T01:40:28.725Z,11.30
2023-01-20T01:41:28.734Z,11.70
2023-01-20T01:42:28.670Z,11.40
2023-01-20T01:43:28.688Z,12.00
2023-01-20T01:44:28.679Z,10.90
2023-01-20T01:45:28.650Z,10.70
2023-01-20T01:46:28.682Z,11.70
2023-01-20T01:47:28.640Z,12.90
2023-01-20T01:48:28.702Z,11.40
2023-01-20T01:49:28.600Z,11.60
2023-01-20T01:50:28.588Z,11.50
2023-01-20T01:51:28.571Z,11.70
2023-01-20T01:52:28.584Z,12.10
2023-01-20T01:53:28.615Z,11.40
2023-01-20T01:54:28.567Z,11.40
2023-01-20T01:55:28.531Z,11.60
2023-01-20T01:56:28.520Z,11.80
2023-01-20T01:57:28.512Z,12.10
2023-01-20T01:58:28.491Z,12.10
2023-01-20T01:59:28.503Z,11.50
2023-01-20T02:00:28.495Z,12.50
2023-01-20T02:01:28.589Z,12.40
2023-01-20T02:02:28.572Z,13.40
2023-01-20T02:03:28.443Z,12.90
2023-01-20T02:04:28.490Z,14.00
2023-01-20T02:05:28.495Z,14.10
2023-01-20T02:06:28.393Z,14.50
2023-01-20T02:07:28.382Z,14.10
2023-01-20T02:08:28.389Z,14.60
2023-01-20T02:09:28.392Z,13.80
2023-01-20T02:10:28.349Z,13.90
2023-01-20T02:11:28.383Z,14.10
2023-01-20T02:12:28.334Z,15.00
2023-01-20T02:13:28.312Z,15.70
2023-01-20T02:14:28.325Z,16.60
2023-01-20T02:15:28.304Z,17.50
2023-01-20T02:16:28.418Z,17.20
2023-01-20T02:17:28.281Z,18.20
2023-01-20T02:18:28.286Z,19.10
2023-01-20T02:19:28.266Z,20.40
2023-01-20T02:20:28.257Z,18.90
2023-01-20T02:21:28.218Z,17.10
2023-01-20T02:22:28.268Z,17.60
2023-01-20T02:23:28.213Z,16.60
2023-01-20T02:24:28.212Z,18.70
2023-01-20T02:25:28.300Z,18.00
2023-01-20T02:26:28.208Z,20.30
2023-01-20T02:27:28.190Z,19.50
2023-01-20T02:28:28.160Z,18.30
2023-01-20T02:29:28.146Z,18.90
2023-01-20T02:30:28.176Z,19.30
2023-01-20T02:31:28.151Z,20.20
2023-01-20T02:32:28.100Z,21.30
2023-01-20T02:33:28.292Z,21.20
2023-01-20T02:34:28.099Z,23.10
2023-01-20T02:35:28.074Z,18.80
2023-01-20T02:36:28.053Z,23.70
2023-01-20T02:37:28.099Z,28.00
2023-01-20T02:38:28.083Z,25.20
2023-01-20T02:39:28.021Z,29.50
2023-01-20T02:40:28.008Z,27.60
2023-01-20T02:41:28.017Z,28.90
2023-01-20T02:42:28.014Z,25.80
2023-01-20T02:43:27.998Z,27.30
2023-01-20T02:44:28.016Z,26.80
2023-01-20T02:45:28.036Z,27.80
2023-01-20T02:46:27.952Z,24.90
2023-01-20T02:47:27.963Z,27.80
2023-01-20T02:48:27.934Z,25.00
2023-01-20T02:49:27.936Z,27.30
2023-01-20T02:50:28.171Z,27.70
2023-01-20T02:51:27.921Z,23.60
2023-01-20T02:52:27.926Z,24.30
2023-01-20T02:53:27.886Z,24.00
2023-01-20T02:54:27.855Z,23.70
2023-01-20T02:55:27.875Z,23.70
2023-01-20T02:56:27.822Z,25.30
2023-01-20T02:57:27.810Z,26.90
2023-01-20T02:58:27.805Z,30.00
2023-01-20T02:59:27.783Z,24.30
2023-01-20T03:00:27.815Z,23.10
2023-01-20T03:01:27.834Z,29.60
2023-01-20T03:02:27.797Z,25.30
2023-01-20T03:03:27.767Z,23.20
2023-01-20T03:04:27.795Z,28.60
2023-01-20T03:05:27.724Z,30.20
2023-01-20T03:06:27.729Z,26.00
2023-01-20T03:07:27.708Z,27.70
2023-01-20T03:08:27.697Z,28.60
2023-01-20T03:09:27.738Z,27.00
2023-01-20T03:10:27.665Z,28.70
2023-01-20T03:11:27.686Z,30.30
2023-01-20T03:12:27.655Z,26.50
2023-01-20T03:13:27.639Z,29.40
2023-01-20T03:14:27.695Z,27.30
2023-01-20T03:15:27.657Z,27.30
2023-01-20T03:16:27.655Z,33.30
2023-01-20T03:17:27.607Z,33.20
2023-01-20T03:18:27.577Z,29.50
2023-01-20T03:19:27.617Z,24.80
2023-01-20T03:20:27.616Z,28.50
2023-01-20T03:21:27.591Z,27.60
2023-01-20T03:22:27.597Z,29.90
2023-01-20T03:23:27.569Z,31.20
2023-01-20T03:24:27.516Z,29.40
2023-01-20T03:25:27.520Z,37.00
2023-01-20T03:26:27.503Z,28.50
2023-01-20T03:27:27.481Z,27.30
2023-01-20T03:28:27.494Z,25.60
2023-01-20T03:29:27.447Z,26.60
2023-01-20T03:30:27.525Z,30.20
2023-01-20T03:31:27.540Z,23.80
2023-01-20T03:32:27.415Z,28.90
2023-01-20T03:33:27.396Z,27.30
2023-01-20T03:34:27.418Z,25.90
2023-01-20T03:35:27.412Z,26.20
2023-01-20T03:36:27.422Z,31.30
2023-01-20T03:37:27.367Z,27.90
2023-01-20T03:38:27.358Z,29.60
2023-01-20T03:39:27.378Z,26.10
2023-01-20T03:40:27.352Z,27.00
2023-01-20T03:41:27.383Z,26.30
2023-01-20T03:42:27.302Z,25.30
2023-01-20T03:43:27.339Z,25.40
2023-01-20T03:44:27.292Z,27.10
2023-01-20T03:45:27.359Z,26.10
2023-01-20T03:46:27.315Z,27.90
2023-01-20T03:47:27.238Z,26.50
2023-01-20T03:48:27.260Z,25.50
2023-01-20T03:49:27.242Z,25.40
2023-01-20T03:50:27.263Z,22.90
2023-01-20T03:51:27.201Z,24.50
2023-01-20T03:52:46.630Z,29.80
2023-01-20T03:53:28.176Z,24.30
2023-01-20T03:54:27.193Z,29.10
2023-01-20T03:55:27.162Z,32.60
2023-01-20T03:56:27.128Z,25.40
2023-01-20T03:57:27.148Z,25.50
2023-01-20T03:58:27.179Z,25.40
2023-01-20T03:59:27.135Z,27.70
2023-01-20T04:00:27.101Z,25.40
2023-01-20T04:01:27.169Z,25.50
2023-01-20T04:02:27.172Z,26.90
2023-01-20T04:03:27.236Z,25.50
2023-01-20T04:04:27.058Z,24.70
2023-01-20T04:05:27.040Z,24.20
2023-01-20T04:06:27.043Z,25.00
2023-01-20T04:07:27.045Z,33.00
2023-01-20T04:08:27.014Z,22.80
2023-01-20T04:09:27.088Z,22.90
2023-01-20T04:10:26.992Z,24.70
2023-01-20T04:11:26.970Z,26.00
2023-01-20T04:12:26.976Z,23.20
2023-01-20T04:13:26.950Z,25.70
2023-01-20T04:14:26.930Z,26.50
2023-01-20T04:15:29.134Z,21.60
2023-01-20T04:16:27.002Z,22.60
2023-01-20T04:17:26.928Z,20.60
2023-01-20T04:18:26.922Z,21.50
2023-01-20T04:19:26.931Z,21.50
2023-01-20T04:20:26.873Z,24.40
2023-01-20T04:21:27.103Z,21.50
2023-01-20T04:22:26.864Z,22.20
2023-01-20T04:23:26.928Z,23.10
2023-01-20T04:24:26.848Z,19.40
2023-01-20T04:25:26.870Z,19.70
2023-01-20T04:26:26.859Z,21.70
2023-01-20T04:27:26.822Z,20.50
2023-01-20T04:28:26.802Z,22.20
2023-01-20T04:29:26.762Z,20.50
2023-01-20T04:30:26.857Z,20.90
2023-01-20T04:31:31.177Z,23.70
2023-01-20T04:32:26.750Z,18.40
2023-01-20T04:33:26.790Z,21.60
2023-01-20T04:34:26.740Z,21.70
2023-01-20T04:35:26.716Z,24.20
2023-01-20T04:36:26.722Z,25.00
2023-01-20T04:37:26.731Z,24.20
2023-01-20T04:38:26.691Z,22.30
2023-01-20T04:39:26.682Z,22.70
2023-01-20T04:40:26.650Z,20.40
2023-01-20T04:41:26.659Z,21.10
2023-01-20T04:42:26.680Z,18.90
2023-01-20T04:43:26.600Z,20.40
2023-01-20T04:44:26.609Z,23.90
2023-01-20T04:45:26.641Z,19.00
2023-01-20T04:46:26.607Z,20.60
2023-01-20T04:47:26.563Z,17.50
2023-01-20T04:48:26.704Z,17.70
2023-01-20T04:49:26.553Z,15.60
2023-01-20T04:50:26.551Z,15.70
2023-01-20T04:51:26.562Z,14.60
2023-01-20T04:52:26.520Z,14.70
2023-01-20T04:53:26.551Z,17.20
2023-01-20T04:54:26.491Z,15.00
2023-01-20T04:55:26.596Z,15.40
2023-01-20T04:56:26.570Z,16.00
2023-01-20T04:57:26.529Z,14.50
2023-01-20T04:58:26.435Z,14.10
2023-01-20T04:59:26.468Z,14.60
2023-01-20T05:00:26.424Z,16.20
2023-01-20T05:01:26.487Z,16.00
2023-01-20T05:02:26.488Z,14.20
2023-01-20T05:03:26.393Z,14.80
2023-01-20T05:04:26.374Z,15.40
2023-01-20T05:05:26.376Z,14.90
2023-01-20T05:06:26.345Z,15.20
2023-01-20T05:07:26.360Z,15.20
2023-01-20T05:08:26.343Z,15.80
2023-01-20T05:09:26.344Z,17.00
2023-01-20T05:10:26.322Z,16.50
2023-01-20T05:11:26.303Z,15.50
2023-01-20T05:12:26.285Z,15.60
2023-01-20T05:13:27.202Z,16.40
2023-01-20T05:14:26.272Z,16.00
2023-01-20T05:15:26.287Z,16.00
2023-01-20T05:16:26.228Z,15.40
2023-01-20T05:17:26.224Z,15.80
2023-01-20T05:18:26.205Z,18.10
2023-01-20T05:19:26.230Z,16.60
2023-01-20T05:20:26.268Z,16.50
2023-01-20T05:21:26.172Z,16.50
2023-01-20T05:22:26.157Z,19.40
2023-01-20T05:23:26.166Z,17.20
2023-01-20T05:24:26.148Z,19.50
2023-01-20T05:25:26.655Z,21.10
2023-01-20T05:26:26.107Z,20.20
2023-01-20T05:27:26.161Z,22.50
2023-01-20T05:28:26.101Z,18.80
2023-01-20T05:29:26.072Z,20.60
2023-01-20T05:30:30.325Z,19.20
2023-01-20T05:31:26.125Z,21.40
2023-01-20T05:32:26.057Z,19.90
2023-01-20T05:33:26.294Z,18.30
2023-01-20T05:34:26.035Z,17.10
2023-01-20T05:35:26.035Z,19.80
2023-01-20T05:36:26.034Z,21.90
2023-01-20T05:37:25.989Z,20.80
2023-01-20T05:38:26.064Z,18.20
2023-01-20T05:39:25.981Z,20.00
2023-01-20T05:40:25.965Z,20.30
2023-01-20T05:41:26.019Z,20.40
2023-01-20T05:42:26.052Z,19.50
2023-01-20T05:43:25.968Z,19.40
2023-01-20T05:44:25.919Z,19.60
2023-01-20T05:45:25.913Z,21.90
2023-01-20T05:46:25.990Z,18.60
2023-01-20T05:47:25.879Z,17.90
2023-01-20T05:48:25.895Z,18.90
2023-01-20T05:49:25.845Z,18.40
2023-01-20T05:50:25.859Z,20.20
2023-01-20T05:51:25.842Z,18.90
2023-01-20T05:52:25.837Z,18.40
2023-01-20T05:53:25.807Z,19.20
2023-01-20T05:54:25.848Z,18.00
2023-01-20T05:55:25.800Z,20.20
2023-01-20T05:56:25.799Z,16.20
2023-01-20T05:57:25.812Z,13.30
2023-01-20T05:58:25.814Z,13.40
2023-01-20T05:59:25.762Z,11.80
2023-01-20T06:00:25.761Z,11.90
2023-01-20T06:01:25.763Z,11.40
2023-01-20T06:02:25.730Z,10.40
2023-01-20T06:03:25.717Z,12.20
2023-01-20T06:04:25.689Z,12.10
2023-01-20T06:05:25.686Z,12.00
2023-01-20T06:06:25.685Z,12.10
2023-01-20T06:07:25.748Z,12.70
2023-01-20T06:08:25.638Z,14.10
2023-01-20T06:09:25.680Z,14.20
2023-01-20T06:10:25.605Z,13.80
2023-01-20T06:11:25.606Z,13.70
2023-01-20T06:12:25.621Z,14.40
2023-01-20T06:13:25.589Z,15.00
2023-01-20T06:14:25.577Z,15.50
2023-01-20T06:15:25.564Z,15.80
2023-01-20T06:16:25.631Z,15.00
2023-01-20T06:17:25.567Z,14.90
2023-01-20T06:18:25.544Z,13.20
2023-01-20T06:19:25.514Z,14.00
2023-01-20T06:20:25.524Z,13.60
2023-01-20T06:21:25.486Z,14.60
2023-01-20T06:22:25.467Z,15.30
2023-01-20T06:23:25.701Z,15.60
2023-01-20T06:24:25.476Z,15.00
2023-01-20T06:25:25.447Z,14.90
2023-01-20T06:26:25.450Z,14.80
2023-01-20T06:27:25.428Z,13.60
2023-01-20T06:28:25.410Z,14.00
2023-01-20T06:29:25.464Z,16.00
2023-01-20T06:30:25.387Z,15.30
2023-01-20T06:31:25.649Z,15.30
2023-01-20T06:32:25.389Z,15.80
2023-01-20T06:33:25.358Z,14.80
2023-01-20T06:34:25.354Z,15.80
2023-01-20T06:35:25.389Z,15.60
2023-01-20T06:36:25.343Z,15.50
2023-01-20T06:37:25.350Z,16.00
2023-01-20T06:38:25.316Z,17.00
2023-01-20T06:39:25.350Z,16.80
2023-01-20T06:40:25.328Z,16.40
2023-01-20T06:41:25.272Z,16.40
2023-01-20T06:42:25.261Z,16.90
2023-01-20T06:43:25.248Z,16.10
2023-01-20T06:44:25.229Z,16.70
2023-01-20T06:45:25.233Z,16.00
2023-01-20T06:46:25.302Z,15.70
2023-01-20T06:47:25.213Z,16.00
2023-01-20T06:48:25.172Z,16.60
2023-01-20T06:49:25.207Z,16.40
2023-01-20T06:50:25.186Z,15.80
2023-01-20T06:51:25.138Z,16.30
2023-01-20T06:52:25.154Z,17.20
2023-01-20T06:53:25.123Z,17.50
2023-01-20T06:54:25.122Z,16.80
2023-01-20T06:55:25.130Z,16.40
2023-01-20T06:56:25.182Z,16.80
2023-01-20T06:57:25.090Z,17.40
2023-01-20T06:58:25.131Z,18.10
2023-01-20T06:59:25.074Z,17.30
2023-01-20T07:00:25.045Z,16.70
2023-01-20T07:01:25.192Z,17.10
2023-01-20T07:02:25.089Z,17.90
2023-01-20T07:03:25.021Z,16.00
2023-01-20T07:04:25.020Z,16.10
2023-01-20T07:05:25.013Z,16.50
2023-01-20T07:06:24.978Z,17.30
2023-01-20T07:07:24.983Z,15.00
2023-01-20T07:08:24.959Z,15.10
2023-01-20T07:09:24.989Z,16.40
2023-01-20T07:10:24.923Z,15.10
2023-01-20T07:11:24.950Z,16.50
2023-01-20T07:12:24.916Z,16.40
2023-01-20T07:13:24.901Z,15.30
2023-01-20T07:14:24.910Z,17.30
2023-01-20T07:15:24.908Z,16.40
2023-01-20T07:16:24.886Z,15.80
2023-01-20T07:17:24.864Z,15.10
2023-01-20T07:18:24.841Z,16.70
2023-01-20T07:19:24.863Z,16.20
2023-01-20T07:20:24.821Z,19.30
2023-01-20T07:21:26.518Z,18.60
2023-01-20T07:22:24.803Z,17.10
2023-01-20T07:23:24.899Z,16.50
2023-01-20T07:24:24.782Z,16.40
2023-01-20T07:25:24.750Z,18.30
2023-01-20T07:26:24.923Z,19.30
2023-01-20T07:27:24.835Z,20.60
2023-01-20T07:28:24.763Z,19.00
2023-01-20T07:29:24.717Z,18.50
2023-01-20T07:30:24.742Z,18.20
2023-01-20T07:31:24.735Z,19.40
2023-01-20T07:32:24.724Z,20.60
2023-01-20T07:33:24.676Z,32.60
2023-01-20T07:34:24.666Z,26.10
2023-01-20T07:35:24.642Z,24.00
2023-01-20T07:36:24.645Z,25.60
2023-01-20T07:37:24.626Z,22.10
2023-01-20T07:38:24.632Z,22.60
2023-01-20T07:39:24.643Z,26.20
2023-01-20T07:40:24.606Z,27.20
2023-01-20T07:41:24.577Z,26.30
2023-01-20T07:42:24.551Z,22.90
2023-01-20T07:43:24.604Z,21.80
2023-01-20T07:44:24.534Z,23.30
2023-01-20T07:45:24.577Z,21.80
2023-01-20T07:46:24.541Z,25.30
2023-01-20T07:47:24.514Z,23.70
2023-01-20T07:48:24.494Z,21.20
2023-01-20T07:49:24.504Z,22.40
2023-01-20T07:50:24.469Z,22.50
2023-01-20T07:51:24.493Z,20.20
2023-01-20T07:52:24.472Z,20.50
2023-01-20T07:53:24.442Z,18.70
2023-01-20T07:54:24.431Z,18.00
2023-01-20T07:55:25.208Z,19.20
2023-01-20T07:56:24.418Z,17.70
2023-01-20T07:57:24.405Z,18.30
2023-01-20T07:58:24.377Z,18.20
2023-01-20T07:59:24.455Z,17.80
2023-01-20T08:00:24.368Z,16.30
2023-01-20T08:01:24.477Z,16.50
2023-01-20T08:02:24.583Z,17.10
2023-01-20T08:03:26.625Z,18.80
2023-01-20T08:04:24.363Z,19.80
2023-01-20T08:05:24.314Z,17.40
2023-01-20T08:06:24.342Z,16.70
2023-01-20T08:07:24.293Z,18.00
2023-01-20T08:08:24.275Z,17.70
2023-01-20T08:09:24.252Z,17.50
2023-01-20T08:10:24.271Z,18.10
2023-01-20T08:11:24.236Z,19.30
2023-01-20T08:12:24.254Z,22.20
2023-01-20T08:13:24.205Z,18.00
2023-01-20T08:14:24.209Z,17.40
2023-01-20T08:15:24.186Z,16.60
2023-01-20T08:16:24.180Z,16.70
2023-01-20T08:17:24.167Z,16.40
2023-01-20T08:18:24.185Z,15.80
2023-01-20T08:19:24.178Z,16.20
2023-01-20T08:20:24.147Z,14.20
2023-01-20T08:21:24.134Z,14.80
2023-01-20T08:22:24.115Z,15.50
2023-01-20T08:23:24.098Z,15.30
2023-01-20T08:24:24.124Z,15.00
2023-01-20T08:25:24.075Z,16.60
2023-01-20T08:26:24.064Z,15.70
2023-01-20T08:27:24.093Z,15.50
2023-01-20T08:28:24.055Z,16.30
2023-01-20T08:29:24.066Z,16.30
2023-01-20T08:30:24.027Z,18.20
2023-01-20T08:31:24.224Z,16.90
2023-01-20T08:32:23.999Z,15.70
2023-01-20T08:33:23.983Z,16.30
2023-01-20T08:34:23.975Z,16.60
2023-01-20T08:35:24.008Z,15.40
2023-01-20T08:36:24.006Z,16.40
2023-01-20T08:37:23.935Z,16.00
2023-01-20T08:38:24.019Z,15.60
2023-01-20T08:39:23.922Z,15.60
2023-01-20T08:40:23.941Z,15.90
2023-01-20T08:41:23.994Z,16.40
2023-01-20T08:42:23.915Z,16.00
2023-01-20T08:43:23.865Z,17.20
2023-01-20T08:44:23.867Z,16.20
2023-01-20T08:45:23.898Z,16.40
2023-01-20T08:46:23.896Z,17.50
2023-01-20T08:47:23.877Z,17.50
2023-01-20T08:48:23.836Z,18.60
2023-01-20T08:49:23.812Z,19.60
2023-01-20T08:50:23.785Z,21.00
2023-01-20T08:51:23.803Z,17.70
2023-01-20T08:52:23.758Z,18.00
2023-01-20T08:53:23.843Z,17.70
2023-01-20T08:54:23.753Z,16.90
2023-01-20T08:55:23.730Z,17.50
2023-01-20T08:56:23.759Z,16.50
2023-01-20T08:57:23.761Z,16.60
2023-01-20T08:58:25.398Z,17.10
2023-01-20T08:59:23.697Z,16.90
2023-01-20T09:00:23.716Z,14.60
2023-01-20T09:01:23.762Z,14.90
2023-01-20T09:02:23.721Z,15.30
2023-01-20T09:03:23.679Z,14.70
2023-01-20T09:04:23.681Z,14.80
2023-01-20T09:05:23.645Z,14.10
2023-01-20T09:06:23.611Z,15.50
2023-01-20T09:07:23.600Z,14.50
2023-01-20T09:08:23.607Z,16.00
2023-01-20T09:09:23.612Z,14.40
2023-01-20T09:10:23.718Z,13.70
2023-01-20T09:11:23.667Z,13.90
2023-01-20T09:12:23.557Z,15.80
2023-01-20T09:13:23.517Z,15.00
2023-01-20T09:14:23.526Z,12.90
2023-01-20T09:15:25.514Z,13.80
2023-01-20T09:16:23.527Z,14.70
2023-01-20T09:17:23.496Z,15.50
2023-01-20T09:18:23.497Z,15.70
2023-01-20T09:19:23.466Z,14.20
2023-01-20T09:20:23.499Z,15.70
2023-01-20T09:21:23.528Z,15.60
2023-01-20T09:22:23.447Z,14.70
2023-01-20T09:23:23.423Z,14.70
2023-01-20T09:24:23.438Z,13.40
2023-01-20T09:25:23.397Z,14.00
2023-01-20T09:26:35.289Z,15.40
2023-01-20T09:27:24.408Z,14.10
2023-01-20T09:28:23.415Z,14.50
2023-01-20T09:29:23.349Z,14.20
2023-01-20T09:30:23.354Z,13.60
2023-01-20T09:31:23.440Z,13.10
2023-01-20T09:32:23.304Z,12.40
2023-01-20T09:33:23.324Z,12.50
2023-01-20T09:34:23.299Z,12.30
2023-01-20T09:35:23.285Z,12.90
2023-01-20T09:36:23.306Z,12.40
2023-01-20T09:37:23.248Z,13.30
2023-01-20T09:38:23.241Z,12.10
2023-01-20T09:39:23.274Z,12.00
2023-01-20T09:40:23.246Z,11.90
2023-01-20T09:41:23.224Z,12.00
2023-01-20T09:42:23.203Z,12.20
2023-01-20T09:43:23.197Z,13.00
2023-01-20T09:44:23.174Z,13.30
2023-01-20T09:45:23.194Z,13.20
2023-01-20T09:46:23.179Z,14.00
2023-01-20T09:47:23.160Z,14.10
2023-01-20T09:48:23.123Z,13.70
2023-01-20T09:49:23.131Z,14.80
2023-01-20T09:50:23.123Z,13.50
2023-01-20T09:51:23.124Z,13.80
2023-01-20T09:52:23.103Z,13.30
2023-01-20T09:53:23.061Z,14.20
2023-01-20T09:54:23.051Z,13.30
2023-01-20T09:55:23.082Z,13.10
2023-01-20T09:56:23.069Z,15.00
2023-01-20T09:57:23.033Z,14.80
2023-01-20T09:58:23.030Z,15.00
2023-01-20T09:59:22.992Z,15.00
2023-01-20T10:00:22.990Z,14.00
2023-01-20T10:01:23.082Z,15.60
2023-01-20T10:02:22.999Z,14.90
2023-01-20T10:03:22.966Z,14.80
2023-01-20T10:04:23.003Z,13.40
2023-01-20T10:05:23.028Z,13.00
2023-01-20T10:06:22.923Z,14.20
2023-01-20T10:07:22.968Z,14.20
2023-01-20T10:08:22.906Z,14.30
2023-01-20T10:09:22.901Z,15.50
2023-01-20T10:10:22.888Z,15.10
2023-01-20T10:11:23.251Z,13.80
2023-01-20T10:12:22.863Z,15.80
2023-01-20T10:13:22.846Z,15.50
2023-01-20T10:14:22.862Z,16.00
2023-01-20T10:15:22.816Z,18.40
2023-01-20T10:16:22.949Z,17.40
2023-01-20T10:17:22.805Z,17.40
2023-01-20T10:18:22.804Z,16.60
2023-01-20T10:19:22.766Z,15.20
2023-01-20T10:20:22.767Z,15.90
2023-01-20T10:21:22.742Z,16.00
2023-01-20T10:22:22.735Z,15.40
2023-01-20T10:23:22.723Z,15.40
2023-01-20T10:24:22.739Z,14.40
2023-01-20T10:25:22.699Z,14.60
2023-01-20T10:26:22.694Z,15.70
2023-01-20T10:27:22.678Z,17.30
2023-01-20T10:28:22.688Z,16.50
2023-01-20T10:29:22.653Z,17.30
2023-01-20T10:30:22.763Z,14.90
2023-01-20T10:31:22.737Z,15.30
2023-01-20T10:32:22.643Z,14.90
2023-01-20T10:33:22.700Z,15.20
2023-01-20T10:34:22.614Z,14.70
2023-01-20T10:35:22.693Z,15.70
2023-01-20T10:36:22.605Z,15.60
2023-01-20T10:37:22.757Z,15.10
2023-01-20T10:38:22.555Z,14.50
2023-01-20T10:39:22.799Z,14.70
2023-01-20T10:40:22.561Z,14.90
2023-01-20T10:41:22.551Z,15.90
2023-01-20T10:42:22.613Z,14.40
2023-01-20T10:43:22.488Z,14.70
2023-01-20T10:44:22.521Z,15.40
2023-01-20T10:45:22.496Z,16.20
2023-01-20T10:46:22.585Z,16.00
2023-01-20T10:47:22.506Z,15.80
2023-01-20T10:48:22.455Z,15.80
2023-01-20T10:49:22.477Z,16.20
2023-01-20T10:50:22.436Z,17.20
2023-01-20T10:51:22.439Z,18.00
2023-01-20T10:52:22.395Z,16.70
2023-01-20T10:53:22.431Z,17.00
2023-01-20T10:54:22.382Z,17.30
2023-01-20T10:55:22.373Z,17.30
2023-01-20T10:56:22.382Z,16.30
2023-01-20T10:57:22.344Z,15.50
2023-01-20T10:58:22.363Z,16.30
2023-01-20T10:59:22.335Z,14.80
2023-01-20T11:00:22.365Z,15.40
2023-01-20T11:01:22.345Z,15.90
2023-01-20T11:02:22.350Z,15.50
2023-01-20T11:03:22.341Z,16.50
2023-01-20T11:04:22.275Z,15.80
2023-01-20T11:05:22.288Z,16.20
2023-01-20T11:06:22.238Z,16.60
2023-01-20T11:07:22.249Z,16.30
2023-01-20T11:08:22.226Z,16.00
2023-01-20T11:09:22.199Z,16.80
2023-01-20T11:10:22.275Z,17.00
2023-01-20T11:11:22.209Z,16.30
2023-01-20T11:12:22.366Z,15.90
2023-01-20T11:13:22.164Z,16.30
2023-01-20T11:14:22.257Z,16.20
2023-01-20T11:15:22.174Z,16.00
2023-01-20T11:16:22.281Z,17.10
2023-01-20T11:17:22.127Z,16.70
2023-01-20T11:18:22.126Z,15.70
2023-01-20T11:19:22.113Z,15.70
2023-01-20T11:20:22.077Z,16.50
2023-01-20T11:21:22.099Z,17.00
2023-01-20T11:22:22.147Z,17.40
2023-01-20T11:23:22.098Z,17.60
2023-01-20T11:24:22.041Z,17.40
2023-01-20T11:25:22.035Z,17.70
2023-01-20T11:26:22.196Z,17.40
2023-01-20T11:27:22.056Z,18.50
2023-01-20T11:28:21.987Z,16.80
2023-01-20T11:29:22.026Z,17.30
2023-01-20T11:30:21.970Z,16.60
2023-01-20T11:31:22.087Z,17.50
2023-01-20T11:32:25.008Z,17.20
2023-01-20T11:33:21.986Z,16.70
2023-01-20T11:34:21.909Z,16.10
2023-01-20T11:35:21.895Z,16.30
2023-01-20T11:36:21.888Z,17.20
2023-01-20T11:37:21.877Z,17.50
2023-01-20T11:38:21.865Z,17.40
2023-01-20T11:39:21.980Z,18.10
2023-01-20T11:40:21.838Z,17.80
2023-01-20T11:41:21.837Z,17.10
2023-01-20T11:42:21.825Z,18.20
2023-01-20T11:43:21.800Z,17.50
2023-01-20T11:44:21.886Z,17.10
2023-01-20T11:45:22.033Z,17.00
2023-01-20T11:46:21.812Z,18.00
2023-01-20T11:47:21.768Z,18.10
2023-01-20T11:48:21.777Z,17.70
2023-01-20T11:49:21.773Z,18.20
2023-01-20T11:50:21.788Z,18.10
2023-01-20T11:51:21.711Z,18.00
2023-01-20T11:52:21.714Z,15.80
2023-01-20T11:53:21.713Z,15.70
2023-01-20T11:54:21.679Z,15.50
2023-01-20T11:55:21.687Z,16.20
2023-01-20T11:56:21.711Z,14.80
2023-01-20T11:57:21.649Z,14.10
2023-01-20T11:58:21.642Z,14.00
2023-01-20T11:59:21.661Z,15.10
2023-01-20T12:00:21.611Z,14.50
2023-01-20T12:01:21.613Z,13.60
2023-01-20T12:02:21.617Z,14.00
2023-01-20T12:03:21.581Z,15.30
2023-01-20T12:04:21.755Z,14.50
2023-01-20T12:05:21.551Z,15.60
2023-01-20T12:06:21.551Z,15.00
2023-01-20T12:07:21.532Z,15.60
2023-01-20T12:08:21.555Z,15.20
2023-01-20T12:09:21.563Z,14.70
2023-01-20T12:10:21.513Z,14.90
2023-01-20T12:11:21.572Z,14.20
2023-01-20T12:12:21.481Z,15.60
2023-01-20T12:13:21.481Z,16.60
2023-01-20T12:14:21.490Z,17.60
2023-01-20T12:15:21.444Z,16.40
2023-01-20T12:16:21.490Z,16.90
2023-01-20T12:17:21.437Z,17.70
2023-01-20T12:18:21.452Z,17.50
2023-01-20T12:19:21.401Z,17.90
2023-01-20T12:20:21.419Z,16.70
2023-01-20T12:21:21.383Z,18.10
2023-01-20T12:22:21.383Z,17.30
2023-01-20T12:23:21.434Z,17.40
2023-01-20T12:24:21.385Z,17.00
2023-01-20T12:25:21.349Z,13.60
2023-01-20T12:26:21.363Z,13.30
2023-01-20T12:27:21.376Z,13.40
2023-01-20T12:28:21.307Z,14.90
2023-01-20T12:29:21.314Z,15.10
2023-01-20T12:30:22.879Z,14.40
2023-01-20T12:31:21.335Z,16.80
2023-01-20T12:32:21.282Z,16.40
2023-01-20T12:33:21.242Z,15.90
2023-01-20T12:34:21.257Z,15.90
2023-01-20T12:35:21.226Z,17.30
2023-01-20T12:36:21.233Z,16.40
2023-01-20T12:37:21.198Z,17.60
2023-01-20T12:38:21.216Z,17.40
2023-01-20T12:39:21.187Z,16.60
2023-01-20T12:40:21.182Z,15.80
2023-01-20T12:41:21.154Z,16.00
2023-01-20T12:42:21.137Z,15.40
2023-01-20T12:43:21.856Z,16.10
2023-01-20T12:44:21.174Z,17.20
2023-01-20T12:45:21.113Z,15.70
2023-01-20T12:46:21.109Z,16.70
2023-01-20T12:47:21.114Z,15.80
2023-01-20T12:48:21.074Z,14.70
2023-01-20T12:49:21.100Z,14.80
2023-01-20T12:50:21.069Z,15.90
2023-01-20T12:51:21.044Z,16.10
2023-01-20T12:52:21.094Z,15.90